createdAt,value
2022-08-05T00:00:18.360Z,49.89
2022-08-05T00:02:50.716Z,49.68
2022-08-05T00:06:02.611Z,49.94
2022-08-05T00:08:32.978Z,50.25
2022-08-05T00:10:56.943Z,50.85
2022-08-05T00:13:38.188Z,49.66
2022-08-05T00:16:08.998Z,49.71
2022-08-05T00:18:37.978Z,49.17
2022-08-05T00:21:06.477Z,48.91
2022-08-05T00:23:46.950Z,49.28
2022-08-05T00:26:20.965Z,49.92
2022-08-05T00:28:49.526Z,50.09
2022-08-05T00:31:16.347Z,50.36
2022-08-05T00:34:53.628Z,50.71
2022-08-05T00:37:11.128Z,50.14
2022-08-05T00:39:44.372Z,50.83
2022-08-05T00:42:35.671Z,49.61
2022-08-05T00:45:08.546Z,50.79
2022-08-05T00:47:57.169Z,50.12
2022-08-05T00:50:25.262Z,49.95
2022-08-05T00:52:53.246Z,50.52
2022-08-05T00:55:20.093Z,51.64
2022-08-05T00:57:58.032Z,51.04
2022-08-05T01:00:26.240Z,51.47
2022-08-05T01:02:53.076Z,51.88
2022-08-05T01:05:19.866Z,51.17
2022-08-05T01:08:40.219Z,51.79
2022-08-05T01:10:54.755Z,50.27
2022-08-05T01:13:57.824Z,51.04
2022-08-05T01:16:34.014Z,51.22
2022-08-05T01:19:56.278Z,51.54
2022-08-05T01:22:28.099Z,51.27
2022-08-05T01:25:09.902Z,51.11
2022-08-05T01:27:50.670Z,51.37
2022-08-05T01:30:34.223Z,51.47
2022-08-05T01:33:06.249Z,51.61
2022-08-05T01:35:51.656Z,52.38
2022-08-05T01:38:24.723Z,52.27
2022-08-05T01:40:57.491Z,52.55
2022-08-05T01:43:26.487Z,52.86
2022-08-05T01:45:56.819Z,53.14
2022-08-05T01:48:28.565Z,52.89
2022-08-05T01:50:56.838Z,52.57
2022-08-05T01:53:55.235Z,53.15
2022-08-05T01:56:13.479Z,52.52
2022-08-05T01:59:02.511Z,52.25
2022-08-05T02:01:39.706Z,52.80
2022-08-05T02:04:10.196Z,52.88
2022-08-05T02:06:38.909Z,53.36
2022-08-05T02:09:06.946Z,53.67
2022-08-05T02:11:48.116Z,52.69
2022-08-05T02:14:25.514Z,52.95
2022-08-05T02:16:55.380Z,53.74
2022-08-05T02:19:25.009Z,52.93
2022-08-05T02:22:26.941Z,52.43
2022-08-05T02:25:12.664Z,52.96
2022-08-05T02:27:59.778Z,53.30
2022-08-05T02:30:32.507Z,52.94
2022-08-05T02:33:02.937Z,53.07
2022-08-05T02:35:38.086Z,53.36
2022-08-05T02:38:19.550Z,53.59
2022-08-05T02:40:46.924Z,52.84
2022-08-05T02:43:16.727Z,54.58
2022-08-05T02:45:51.500Z,53.72
2022-08-05T02:48:29.469Z,54.30
2022-08-05T02:51:00.110Z,54.10
2022-08-05T02:53:29.198Z,54.31
2022-08-05T02:56:07.007Z,53.93
2022-08-05T02:58:36.394Z,54.02
2022-08-05T03:01:14.825Z,54.78
2022-08-05T03:04:03.383Z,54.61
2022-08-05T03:06:57.016Z,55.05
2022-08-05T03:09:17.820Z,54.54
2022-08-05T03:11:58.039Z,53.65
2022-08-05T03:14:25.045Z,54.00
2022-08-05T03:16:53.530Z,54.19
2022-08-05T03:19:33.823Z,53.98
2022-08-05T03:22:01.424Z,54.62
2022-08-05T03:24:30.824Z,54.83
2022-08-05T03:26:59.993Z,53.86
2022-08-05T03:29:45.256Z,54.00
2022-08-05T03:32:15.506Z,54.16
2022-08-05T03:34:50.728Z,54.27
2022-08-05T03:37:19.013Z,53.79
2022-08-05T03:40:01.758Z,52.54
2022-08-05T03:42:31.971Z,53.26
2022-08-05T03:44:59.156Z,53.98
2022-08-05T03:47:30.495Z,54.25
2022-08-05T03:50:02.237Z,54.10
2022-08-05T03:52:38.383Z,54.49
2022-08-05T03:56:01.099Z,55.04
2022-08-05T03:58:22.307Z,55.04
2022-08-05T04:00:57.942Z,55.62
2022-08-05T04:03:29.409Z,55.22
2022-08-05T04:05:57.932Z,54.69
2022-08-05T04:08:36.372Z,54.36
2022-08-05T04:11:06.020Z,54.75
2022-08-05T04:13:50.647Z,54.99
2022-08-05T04:16:25.121Z,55.06
2022-08-05T04:18:57.772Z,54.84
2022-08-05T04:22:09.084Z,54.89
2022-08-05T04:24:19.189Z,54.67
2022-08-05T04:26:48.881Z,54.58
2022-08-05T04:29:15.472Z,54.97
2022-08-05T04:31:43.002Z,55.10
2022-08-05T04:34:33.031Z,54.79
2022-08-05T04:36:56.420Z,54.50
2022-08-05T04:39:23.193Z,54.96
2022-08-05T04:41:50.999Z,54.86
2022-08-05T04:44:28.975Z,54.71
2022-08-05T04:46:58.925Z,54.47
2022-08-05T04:49:38.348Z,55.15
2022-08-05T04:52:13.231Z,55.10
2022-08-05T04:54:40.630Z,54.90
2022-08-05T04:57:07.199Z,55.22
2022-08-05T04:59:39.214Z,55.33
2022-08-05T05:02:41.411Z,55.34
2022-08-05T05:05:02.372Z,55.17
2022-08-05T05:07:32.794Z,54.98
2022-08-05T05:10:05.418Z,54.33
2022-08-05T05:12:33.373Z,54.81
2022-08-05T05:15:00.053Z,55.07
2022-08-05T05:17:57.067Z,54.03
2022-08-05T05:20:28.267Z,54.62
2022-08-05T05:22:57.139Z,55.26
2022-08-05T05:25:40.568Z,55.21
2022-08-05T05:28:08.716Z,55.15
2022-08-05T05:30:36.147Z,55.22
2022-08-05T05:33:15.893Z,55.25
2022-08-05T05:35:46.746Z,55.41
2022-08-05T05:38:15.010Z,56.00
2022-08-05T05:40:51.848Z,55.33
2022-08-05T05:43:54.645Z,54.96
2022-08-05T05:46:15.829Z,54.99
2022-08-05T05:48:45.871Z,54.69
2022-08-05T05:51:22.428Z,54.89
2022-08-05T05:53:57.428Z,54.68
2022-08-05T05:56:32.692Z,55.32
2022-08-05T05:59:05.862Z,55.93
2022-08-05T06:01:39.325Z,54.22
2022-08-05T06:04:11.732Z,54.59
2022-08-05T06:06:42.670Z,54.23
2022-08-05T06:09:17.485Z,53.82
2022-08-05T06:11:59.495Z,54.40
2022-08-05T06:14:29.207Z,55.11
2022-08-05T06:16:56.965Z,54.21
2022-08-05T06:19:26.278Z,54.55
2022-08-05T06:22:07.252Z,53.79
2022-08-05T06:24:36.583Z,54.09
2022-08-05T06:27:04.415Z,54.96
2022-08-05T06:29:49.338Z,54.69
2022-08-05T06:32:26.386Z,53.09
2022-08-05T06:34:58.339Z,52.58
2022-08-05T06:37:56.868Z,52.19
2022-08-05T06:40:13.998Z,52.69
2022-08-05T06:42:45.635Z,52.55
2022-08-05T06:45:21.336Z,52.48
2022-08-05T06:48:36.110Z,52.92
2022-08-05T06:50:46.256Z,51.46
2022-08-05T06:53:22.388Z,51.33
2022-08-05T06:55:49.270Z,51.28
2022-08-05T06:58:20.391Z,51.25
2022-08-05T07:01:01.558Z,51.20
2022-08-05T07:03:32.848Z,50.48
2022-08-05T07:06:06.137Z,51.71
2022-08-05T07:08:47.199Z,51.80
2022-08-05T07:11:16.017Z,52.79
2022-08-05T07:14:01.993Z,53.11
2022-08-05T07:17:58.540Z,51.83
2022-08-05T07:22:28.389Z,51.46
2022-08-05T07:25:23.486Z,51.72
2022-08-05T07:27:58.693Z,51.66
2022-08-05T07:30:38.412Z,51.01
2022-08-05T07:33:09.553Z,51.17
2022-08-05T07:36:02.810Z,50.16
2022-08-05T07:38:34.727Z,51.20
2022-08-05T07:42:07.317Z,50.48
2022-08-05T07:43:59.532Z,50.16
2022-08-05T07:46:27.675Z,49.79
2022-08-05T07:49:02.656Z,48.34
2022-08-05T07:51:36.645Z,47.47
2022-08-05T07:54:05.236Z,47.95
2022-08-05T07:56:39.175Z,47.37
2022-08-05T07:59:23.178Z,48.61
2022-08-05T08:01:58.087Z,47.92
2022-08-05T08:04:37.586Z,47.94
2022-08-05T08:07:07.315Z,46.73
2022-08-05T08:09:34.903Z,46.58
2022-08-05T08:12:09.109Z,46.26
2022-08-05T08:14:38.126Z,46.54
2022-08-05T08:17:15.804Z,48.77
2022-08-05T08:20:22.114Z,47.84
2022-08-05T08:22:32.287Z,50.06
2022-08-05T08:25:03.230Z,48.36
2022-08-05T08:27:39.906Z,47.78
2022-08-05T08:30:19.693Z,46.08
2022-08-05T08:32:58.364Z,47.18
2022-08-05T08:35:35.081Z,47.82
2022-08-05T08:38:07.780Z,48.62
2022-08-05T08:40:35.931Z,47.99
2022-08-05T08:45:16.688Z,47.07
2022-08-05T08:45:54.470Z,44.71
2022-08-05T08:48:36.125Z,45.52
2022-08-05T08:52:02.348Z,43.49
2022-08-05T08:53:56.163Z,43.94
2022-08-05T08:56:23.702Z,44.26
2022-08-05T08:58:54.006Z,40.18
2022-08-05T09:01:21.354Z,40.64
2022-08-05T09:03:58.297Z,41.39
2022-08-05T09:06:30.487Z,42.64
2022-08-05T09:09:01.907Z,40.96
2022-08-05T09:11:52.767Z,41.15
2022-08-05T09:14:56.990Z,39.44
2022-08-05T09:17:40.267Z,38.83
2022-08-05T09:20:02.182Z,39.09
2022-08-05T09:22:31.130Z,38.00
2022-08-05T09:25:13.525Z,37.72
2022-08-05T09:28:04.125Z,37.74
2022-08-05T09:30:34.828Z,38.17
2022-08-05T09:33:02.537Z,36.98
2022-08-05T09:35:31.572Z,37.83
2022-08-05T09:38:16.199Z,35.93
2022-08-05T09:40:52.346Z,36.52
2022-08-05T09:43:41.453Z,36.67
2022-08-05T09:46:27.804Z,37.08
2022-08-05T09:49:08.337Z,35.96
2022-08-05T09:51:48.800Z,37.26
2022-08-05T09:54:21.267Z,37.87
2022-08-05T09:56:57.470Z,36.48
2022-08-05T09:59:28.242Z,35.93
2022-08-05T10:01:57.686Z,36.88
2022-08-05T10:04:36.120Z,36.29
2022-08-05T10:07:20.098Z,37.66
2022-08-05T10:10:13.938Z,36.93
2022-08-05T10:12:56.607Z,34.38
2022-08-05T10:15:29.667Z,35.13
2022-08-05T10:18:04.108Z,34.42
2022-08-05T10:20:34.461Z,32.79
2022-08-05T10:23:02.127Z,32.88
2022-08-05T10:25:30.098Z,31.56
2022-08-05T10:28:16.611Z,30.63
2022-08-05T10:32:52.274Z,30.04
2022-08-05T10:33:35.295Z,32.67
2022-08-05T10:36:04.685Z,32.13
2022-08-05T10:38:33.298Z,31.65
2022-08-05T10:41:23.439Z,32.70
2022-08-05T10:44:01.338Z,29.51
2022-08-05T10:46:57.517Z,30.23
2022-08-05T10:49:26.938Z,28.24
2022-08-05T10:52:03.285Z,28.06
2022-08-05T10:55:01.946Z,28.50
2022-08-05T10:57:33.915Z,28.48
2022-08-05T11:00:17.945Z,29.75
2022-08-05T11:03:25.628Z,27.65
2022-08-05T11:06:08.559Z,27.35
2022-08-05T11:09:16.723Z,27.81
2022-08-05T11:11:53.544Z,27.19
2022-08-05T11:14:37.302Z,28.75
2022-08-05T11:18:09.500Z,26.37
2022-08-05T11:20:34.289Z,27.99
2022-08-05T11:23:33.463Z,27.90
2022-08-05T11:26:29.061Z,28.45
2022-08-05T11:29:06.899Z,27.69
2022-08-05T11:31:58.166Z,27.71
2022-08-05T11:34:51.968Z,29.60
2022-08-05T11:38:29.936Z,30.88
2022-08-05T11:41:14.169Z,28.87
2022-08-05T11:44:06.989Z,29.71
2022-08-05T11:46:58.422Z,30.02
2022-08-05T11:49:34.054Z,29.15
2022-08-05T11:52:01.207Z,29.87
2022-08-05T11:54:35.001Z,31.34
2022-08-05T11:57:08.162Z,30.58
2022-08-05T11:59:51.456Z,29.21
2022-08-05T12:02:29.652Z,29.91
2022-08-05T12:05:07.494Z,29.30
2022-08-05T12:08:08.962Z,28.83
2022-08-05T12:10:38.652Z,29.71
2022-08-05T12:13:18.801Z,29.18
2022-08-05T12:16:15.462Z,30.11
2022-08-05T12:18:49.306Z,28.95
2022-08-05T12:21:26.994Z,30.81
2022-08-05T12:24:04.630Z,28.99
2022-08-05T12:26:32.792Z,28.69
2022-08-05T12:29:01.515Z,28.66
2022-08-05T12:31:33.528Z,28.22
2022-08-05T12:34:20.527Z,27.76
2022-08-05T12:36:49.915Z,27.67
2022-08-05T12:39:17.710Z,28.73
2022-08-05T12:41:45.438Z,28.96
2022-08-05T12:44:32.584Z,27.62
2022-08-05T12:47:02.232Z,28.86
2022-08-05T12:50:04.720Z,27.47
2022-08-05T12:52:42.027Z,26.96
2022-08-05T12:55:25.334Z,26.60
2022-08-05T12:58:49.930Z,26.66
2022-08-05T13:02:01.382Z,26.71
2022-08-05T13:03:32.235Z,25.91
2022-08-05T13:05:59.393Z,27.27
2022-08-05T13:08:32.106Z,26.59
2022-08-05T13:11:02.439Z,26.71
2022-08-05T13:14:05.926Z,28.19
2022-08-05T13:16:19.998Z,25.01
2022-08-05T13:18:57.740Z,26.59
2022-08-05T13:21:27.893Z,27.82
2022-08-05T13:24:05.656Z,26.19
2022-08-05T13:26:32.682Z,26.32
2022-08-05T13:28:59.658Z,26.37
2022-08-05T13:32:02.872Z,26.11
2022-08-05T13:34:22.648Z,25.38
2022-08-05T13:36:52.300Z,26.24
2022-08-05T13:40:14.030Z,26.02
2022-08-05T13:42:05.937Z,26.84
2022-08-05T13:44:32.673Z,25.88
2022-08-05T13:47:08.829Z,25.96
2022-08-05T13:49:36.454Z,24.73
2022-08-05T13:52:29.477Z,24.99
2022-08-05T13:54:56.746Z,25.26
2022-08-05T13:57:26.322Z,25.52
2022-08-05T14:00:13.148Z,25.61
2022-08-05T14:02:39.961Z,25.90
2022-08-05T14:05:15.440Z,26.33
2022-08-05T14:08:02.872Z,27.02
2022-08-05T14:10:35.642Z,25.94
2022-08-05T14:13:05.851Z,26.60
2022-08-05T14:16:08.068Z,26.52
2022-08-05T14:18:23.454Z,26.66
2022-08-05T14:20:54.527Z,26.06
2022-08-05T14:23:25.263Z,26.79
2022-08-05T14:25:59.004Z,26.16
2022-08-05T14:28:30.426Z,26.90
2022-08-05T14:30:58.880Z,27.66
2022-08-05T14:33:25.687Z,27.71
2022-08-05T14:35:54.417Z,27.61
2022-08-05T14:38:27.742Z,27.70
2022-08-05T14:41:00.911Z,28.23
2022-08-05T14:43:58.953Z,28.92
2022-08-05T14:46:14.552Z,28.24
2022-08-05T14:48:41.499Z,30.28
2022-08-05T14:51:09.420Z,30.27
2022-08-05T14:53:44.423Z,31.10
2022-08-05T14:56:11.987Z,30.23
2022-08-05T14:58:47.946Z,30.60
2022-08-05T15:01:47.281Z,30.48
2022-08-05T15:04:11.477Z,30.56
2022-08-05T15:06:38.887Z,30.43
2022-08-05T15:09:07.174Z,30.29
2022-08-05T15:11:52.462Z,31.00
2022-08-05T15:14:34.264Z,31.54
2022-08-05T15:17:04.742Z,31.66
2022-08-05T15:19:32.400Z,31.69
2022-08-05T15:22:01.298Z,33.00
2022-08-05T15:24:28.746Z,33.04
2022-08-05T15:26:56.006Z,33.04
2022-08-05T15:29:23.790Z,34.03
2022-08-05T15:31:57.254Z,33.81
2022-08-05T15:34:32.307Z,34.28
2022-08-05T15:37:02.361Z,34.60
2022-08-05T15:41:02.133Z,34.44
2022-08-05T15:42:50.320Z,34.73
2022-08-05T15:45:06.233Z,34.61
2022-08-05T15:47:35.914Z,35.29
2022-08-05T15:50:03.758Z,34.03
2022-08-05T15:52:53.303Z,34.87
2022-08-05T15:55:20.137Z,35.35
2022-08-05T15:57:52.328Z,34.74
2022-08-05T16:00:29.294Z,35.04
2022-08-05T16:03:06.490Z,35.97
2022-08-05T16:05:33.292Z,36.58
2022-08-05T16:08:00.042Z,37.13
2022-08-05T16:10:27.129Z,37.19
2022-08-05T16:12:55.885Z,38.61
2022-08-05T16:15:23.283Z,41.16
2022-08-05T16:17:57.935Z,42.46
2022-08-05T16:20:25.752Z,44.83
2022-08-05T16:22:54.759Z,44.90
2022-08-05T16:25:24.146Z,45.22
2022-08-05T16:28:09.811Z,45.46
2022-08-05T16:30:37.674Z,45.68
2022-08-05T16:33:04.810Z,44.06
2022-08-05T16:35:33.758Z,47.24
2022-08-05T16:38:16.456Z,48.05
2022-08-05T16:40:59.807Z,47.41
2022-08-05T16:43:33.059Z,48.61
2022-08-05T16:46:03.790Z,46.00
2022-08-05T16:48:38.261Z,47.06
2022-08-05T16:51:08.995Z,46.82
2022-08-05T16:54:05.686Z,47.05
2022-08-05T16:56:23.887Z,46.81
2022-08-05T16:58:50.734Z,47.46
2022-08-05T17:01:18.893Z,48.89
2022-08-05T17:03:46.030Z,48.97
2022-08-05T17:06:13.333Z,50.31
2022-08-05T17:08:53.152Z,53.09
2022-08-05T17:11:25.395Z,52.60
2022-08-05T17:13:54.805Z,52.96
2022-08-05T17:16:37.811Z,51.79
2022-08-05T17:19:07.862Z,51.75
2022-08-05T17:21:39.420Z,51.23
2022-08-05T17:24:19.794Z,50.91
2022-08-05T17:26:57.099Z,50.34
2022-08-05T17:29:33.072Z,48.71
2022-08-05T17:32:06.789Z,46.92
2022-08-05T17:34:35.259Z,46.38
2022-08-05T17:37:01.945Z,46.49
2022-08-05T17:39:33.965Z,46.69
2022-08-05T17:42:17.881Z,46.49
2022-08-05T17:44:50.321Z,45.22
2022-08-05T17:47:22.902Z,44.44
2022-08-05T17:50:04.328Z,44.41
2022-08-05T17:52:53.044Z,44.72
2022-08-05T17:55:22.698Z,45.01
2022-08-05T17:57:54.300Z,44.69
2022-08-05T18:00:21.045Z,45.08
2022-08-05T18:02:55.268Z,46.99
2022-08-05T18:05:22.287Z,45.49
2022-08-05T18:07:49.630Z,45.63
2022-08-05T18:10:21.116Z,45.76
2022-08-05T18:12:49.150Z,45.96
2022-08-05T18:15:15.867Z,46.14
2022-08-05T18:17:59.677Z,44.65
2022-08-05T18:20:32.009Z,44.96
2022-08-05T18:23:09.271Z,46.43
2022-08-05T18:25:39.157Z,45.84
2022-08-05T18:28:07.106Z,44.69
2022-08-05T18:30:39.109Z,45.18
2022-08-05T18:33:07.490Z,45.74
2022-08-05T18:36:01.103Z,46.30
2022-08-05T18:38:25.902Z,46.65
2022-08-05T18:41:53.311Z,45.33
2022-08-05T18:43:43.087Z,45.12
2022-08-05T18:46:15.475Z,48.32
2022-08-05T18:48:46.279Z,46.91
2022-08-05T18:52:02.751Z,47.32
2022-08-05T18:54:19.840Z,46.44
2022-08-05T18:56:51.307Z,45.89
2022-08-05T18:59:44.409Z,45.91
2022-08-05T19:02:11.334Z,46.31
2022-08-05T19:05:01.363Z,46.17
2022-08-05T19:07:45.984Z,44.54
2022-08-05T19:10:13.220Z,44.97
2022-08-05T19:12:40.460Z,45.42
2022-08-05T19:15:24.940Z,44.78
2022-08-05T19:17:59.856Z,46.64
2022-08-05T19:20:37.104Z,45.79
2022-08-05T19:23:08.563Z,49.82
2022-08-05T19:26:01.699Z,48.89
2022-08-05T19:28:29.388Z,49.25
2022-08-05T19:30:56.044Z,48.42
2022-08-05T19:33:35.626Z,49.48
2022-08-05T19:36:02.817Z,48.42
2022-08-05T19:38:33.781Z,49.00
2022-08-05T19:41:02.418Z,52.81
2022-08-05T19:44:05.804Z,54.28
2022-08-05T19:46:29.726Z,52.40
2022-08-05T19:49:04.561Z,51.15
2022-08-05T19:52:05.733Z,52.56
2022-08-05T19:54:25.474Z,51.18
2022-08-05T19:56:58.357Z,52.41
2022-08-05T20:00:01.020Z,52.19
2022-08-05T20:02:14.439Z,51.72
2022-08-05T20:04:43.258Z,51.42
2022-08-05T20:07:13.954Z,50.34
2022-08-05T20:09:54.761Z,49.95
2022-08-05T20:12:23.713Z,49.99
2022-08-05T20:14:52.225Z,51.53
2022-08-05T20:17:23.458Z,50.67
2022-08-05T20:19:56.545Z,49.61
2022-08-05T20:22:27.180Z,49.24
2022-08-05T20:24:55.362Z,50.60
2022-08-05T20:27:26.701Z,54.53
2022-08-05T20:29:58.557Z,49.35
2022-08-05T20:32:27.273Z,49.58
2022-08-05T20:34:54.630Z,52.19
2022-08-05T20:38:04.811Z,53.66
2022-08-05T20:40:09.360Z,54.41
2022-08-05T20:42:36.097Z,52.47
2022-08-05T20:45:04.618Z,51.35
2022-08-05T20:47:32.716Z,50.52
2022-08-05T20:50:02.148Z,51.46
2022-08-05T20:52:29.397Z,51.18
2022-08-05T20:55:54.214Z,49.75
2022-08-05T20:57:44.682Z,53.92
2022-08-05T21:00:40.868Z,52.25
2022-08-05T21:03:07.422Z,52.42
2022-08-05T21:05:48.098Z,52.04
2022-08-05T21:08:21.024Z,54.68
2022-08-05T21:10:53.779Z,53.13
2022-08-05T21:13:26.044Z,52.60
2022-08-05T21:15:54.606Z,52.37
2022-08-05T21:18:23.374Z,53.17
2022-08-05T21:20:50.185Z,52.88
2022-08-05T21:23:16.907Z,51.53
2022-08-05T21:25:44.847Z,51.21
2022-08-05T21:28:12.190Z,52.37
2022-08-05T21:30:45.211Z,53.27
2022-08-05T21:33:21.963Z,53.00
2022-08-05T21:35:55.759Z,52.42
2022-08-05T21:38:26.690Z,53.69
2022-08-05T21:40:53.346Z,52.95
2022-08-05T21:43:24.505Z,52.11
2022-08-05T21:45:57.633Z,51.07
2022-08-05T21:48:28.164Z,53.22
2022-08-05T21:50:55.243Z,52.41
2022-08-05T21:53:27.545Z,53.03
2022-08-05T21:56:05.028Z,52.70
2022-08-05T21:58:37.058Z,54.95
2022-08-05T22:01:10.763Z,57.59
2022-08-05T22:03:52.428Z,57.86
2022-08-05T22:06:22.204Z,57.21
2022-08-05T22:08:51.816Z,56.51
2022-08-05T22:11:19.343Z,55.12
2022-08-05T22:14:05.538Z,55.33
2022-08-05T22:16:51.889Z,57.89
2022-08-05T22:20:01.158Z,58.16
2022-08-05T22:22:07.560Z,58.02
2022-08-05T22:24:55.694Z,58.55
2022-08-05T22:28:11.025Z,57.78
2022-08-05T22:30:32.208Z,57.24
2022-08-05T22:33:02.138Z,55.91
2022-08-05T22:35:31.262Z,58.67
2022-08-05T22:38:15.027Z,60.21
2022-08-05T22:40:41.963Z,60.37
2022-08-05T22:43:16.339Z,59.02
2022-08-05T22:46:07.427Z,58.53
2022-08-05T22:48:39.191Z,57.46
2022-08-05T22:51:07.048Z,57.17
2022-08-05T22:53:35.823Z,57.26
2022-08-05T22:56:03.664Z,57.47
2022-08-05T22:58:36.796Z,56.63
2022-08-05T23:01:03.505Z,56.13
2022-08-05T23:03:58.156Z,55.39
2022-08-05T23:06:19.869Z,55.74
2022-08-05T23:08:52.994Z,55.11
2022-08-05T23:11:19.656Z,55.87
2022-08-05T23:13:46.309Z,56.37
2022-08-05T23:16:26.224Z,56.85
2022-08-05T23:19:00.319Z,57.59
2022-08-05T23:21:42.659Z,57.11
2022-08-05T23:24:14.583Z,56.86
2022-08-05T23:26:41.974Z,56.11
2022-08-05T23:29:10.879Z,57.06
2022-08-05T23:31:42.579Z,59.21
2022-08-05T23:34:11.391Z,60.64
2022-08-05T23:36:44.329Z,61.57
2022-08-05T23:39:17.589Z,62.06
2022-08-05T23:41:59.568Z,64.09
2022-08-05T23:44:27.815Z,61.24
2022-08-05T23:47:00.294Z,60.67
2022-08-05T23:49:35.764Z,59.98
2022-08-05T23:52:21.805Z,62.61
2022-08-05T23:54:52.688Z,63.69
2022-08-05T23:57:19.412Z,63.55
